createdAt,value
2019-03-04T00:02:00.269Z,96491.61
2019-03-04T00:04:01.869Z,96495.72
2019-03-04T00:06:03.544Z,96500.53
2019-03-04T00:08:05.178Z,96499.59
2019-03-04T00:10:06.787Z,96505.95
2019-03-04T00:12:08.396Z,96496.14
2019-03-04T00:14:10.036Z,96492.06
2019-03-04T00:16:11.652Z,96488.91
2019-03-04T00:18:13.472Z,96490.39
2019-03-04T00:20:15.076Z,96487.59
2019-03-04T00:22:17.152Z,96496.34
2019-03-04T00:24:18.800Z,96499.99
2019-03-04T00:26:20.390Z,96499.34
2019-03-04T00:28:21.991Z,96505.28
2019-03-04T00:30:23.595Z,96495.53
2019-03-04T00:32:25.194Z,96493.26
2019-03-04T00:34:26.817Z,96491.32
2019-03-04T00:36:28.431Z,96490.96
2019-03-04T00:38:30.025Z,96489.08
2019-03-04T00:40:31.664Z,96478.59
2019-03-04T00:42:33.304Z,96479.72
2019-03-04T00:44:34.915Z,96479.14
2019-03-04T00:46:36.499Z,96487.27
2019-03-04T00:48:38.117Z,96487.58
2019-03-04T00:50:39.704Z,96487.13
2019-03-04T00:52:41.292Z,96488.52
2019-03-04T00:54:42.885Z,96479.81
2019-03-04T00:56:44.515Z,96483.78
2019-03-04T00:58:46.119Z,96486.06
2019-03-04T01:00:47.752Z,96478.40
2019-03-04T01:02:49.359Z,96472.62
2019-03-04T01:04:50.968Z,96473.01
2019-03-04T01:06:52.583Z,96469.20
2019-03-04T01:08:54.172Z,96464.90
2019-03-04T01:10:55.766Z,96469.09
2019-03-04T01:12:57.375Z,96470.03
2019-03-04T01:14:58.974Z,96463.02
2019-03-04T01:17:00.584Z,96465.77
2019-03-04T01:19:02.177Z,96467.25
2019-03-04T01:21:03.757Z,96456.47
2019-03-04T01:23:05.353Z,96453.39
2019-03-04T01:25:06.961Z,96447.84
2019-03-04T01:27:08.597Z,96449.98
2019-03-04T01:29:10.198Z,96457.50
2019-03-04T01:31:11.806Z,96453.75
2019-03-04T01:33:13.435Z,96445.62
2019-03-04T01:35:15.033Z,96442.23
2019-03-04T01:37:16.769Z,96428.16
2019-03-04T01:39:18.362Z,96428.30
2019-03-04T01:41:19.958Z,96422.30
2019-03-04T01:43:21.590Z,96418.36
2019-03-04T01:45:23.206Z,96426.47
2019-03-04T01:47:24.816Z,96425.61
2019-03-04T01:49:26.431Z,96417.38
2019-03-04T01:51:28.029Z,96419.80
2019-03-04T01:53:29.683Z,96426.25
2019-03-04T01:55:31.281Z,96415.86
2019-03-04T01:57:32.888Z,96400.09
2019-03-04T01:59:34.486Z,96394.30
2019-03-04T02:01:36.087Z,96393.13
2019-03-04T02:03:37.713Z,96394.53
2019-03-04T02:05:39.308Z,96361.64
2019-03-04T02:07:40.916Z,96387.46
2019-03-04T02:09:42.536Z,96390.76
2019-03-04T02:11:44.120Z,96393.28
2019-03-04T02:13:45.746Z,96388.23
2019-03-04T02:15:47.342Z,96383.81
2019-03-04T02:17:48.944Z,96385.41
2019-03-04T02:19:50.535Z,96380.39
2019-03-04T02:21:52.140Z,96379.95
2019-03-04T02:23:53.743Z,96374.84
2019-03-04T02:25:55.351Z,96357.73
2019-03-04T02:27:56.956Z,96348.08
2019-03-04T02:29:58.599Z,96344.39
2019-03-04T02:32:00.194Z,96346.30
2019-03-04T02:34:01.813Z,96340.92
2019-03-04T02:36:03.458Z,96335.94
2019-03-04T02:38:05.069Z,96328.45
2019-03-04T02:40:06.700Z,96336.34
2019-03-04T02:42:08.286Z,96343.39
2019-03-04T02:44:09.879Z,96349.63
2019-03-04T02:46:11.510Z,96370.41
2019-03-04T02:48:13.111Z,96362.24
2019-03-04T02:50:14.706Z,96357.55
2019-03-04T02:52:16.299Z,96367.65
2019-03-04T02:54:17.912Z,96362.84
2019-03-04T02:56:19.547Z,96370.86
2019-03-04T02:58:21.148Z,96371.60
2019-03-04T03:00:22.770Z,96365.22
2019-03-04T03:02:24.379Z,96366.08
2019-03-04T03:04:26.007Z,96358.03
2019-03-04T03:06:27.596Z,96345.83
2019-03-04T03:08:29.237Z,96354.94
2019-03-04T03:10:30.846Z,96343.95
2019-03-04T03:12:32.443Z,96357.23
2019-03-04T03:14:34.179Z,96349.17
2019-03-04T03:16:35.778Z,96336.80
2019-03-04T03:18:37.391Z,96338.52
2019-03-04T03:20:39.019Z,96346.03
2019-03-04T03:22:40.626Z,96335.13
2019-03-04T03:24:42.252Z,96332.45
2019-03-04T03:26:43.863Z,96329.05
2019-03-04T03:28:45.473Z,96328.03
2019-03-04T03:30:47.081Z,96331.20
2019-03-04T03:32:48.705Z,96334.17
2019-03-04T03:34:50.314Z,96320.70
2019-03-04T03:36:51.928Z,96320.28
2019-03-04T03:38:53.554Z,96306.97
2019-03-04T03:40:55.190Z,96323.66
2019-03-04T03:42:56.787Z,96313.48
2019-03-04T03:44:58.401Z,96314.58
2019-03-04T03:47:00.015Z,96306.97
2019-03-04T03:49:01.619Z,96301.48
2019-03-04T03:51:03.246Z,96305.75
2019-03-04T03:53:04.901Z,96303.11
2019-03-04T03:55:06.531Z,96294.97
2019-03-04T03:57:08.144Z,96294.17
2019-03-04T03:59:09.743Z,96293.72
2019-03-04T04:01:11.386Z,96292.97
2019-03-04T04:03:12.994Z,96289.20
2019-03-04T04:05:14.645Z,96288.97
2019-03-04T04:07:16.260Z,96290.27
2019-03-04T04:09:17.859Z,96283.94
2019-03-04T04:11:19.487Z,96282.08
2019-03-04T04:13:21.101Z,96265.55
2019-03-04T04:15:22.699Z,96261.38
2019-03-04T04:17:24.337Z,96271.09
2019-03-04T04:19:25.934Z,96272.19
2019-03-04T04:21:27.577Z,96262.33
2019-03-04T04:23:29.174Z,96243.65
2019-03-04T04:25:30.784Z,96238.68
2019-03-04T04:27:32.393Z,96234.68
2019-03-04T04:29:34.006Z,96242.77
2019-03-04T04:31:35.598Z,96238.89
2019-03-04T04:33:37.245Z,96242.11
2019-03-04T04:35:38.856Z,96232.38
2019-03-04T04:37:40.504Z,96228.69
2019-03-04T04:39:42.112Z,96228.35
2019-03-04T04:41:43.732Z,96227.17
2019-03-04T04:43:45.362Z,96199.73
2019-03-04T04:45:46.957Z,96216.33
2019-03-04T04:47:48.549Z,96205.53
2019-03-04T04:49:50.155Z,96194.03
2019-03-04T04:51:51.764Z,96198.86
2019-03-04T04:53:53.399Z,96189.92
2019-03-04T04:55:55.016Z,96187.30
2019-03-04T04:57:56.762Z,96179.41
2019-03-04T04:59:58.388Z,96189.34
2019-03-04T05:01:59.982Z,96189.92
2019-03-04T05:04:01.625Z,96197.17
2019-03-04T05:06:03.225Z,96198.04
2019-03-04T05:08:04.853Z,96192.29
2019-03-04T05:10:06.451Z,96200.20
2019-03-04T05:12:08.055Z,96195.51
2019-03-04T05:14:09.640Z,96197.67
2019-03-04T05:16:11.220Z,96182.31
2019-03-04T05:18:12.856Z,96174.55
2019-03-04T05:20:14.468Z,96167.20
2019-03-04T05:22:16.066Z,96158.48
2019-03-04T05:24:17.697Z,96149.25
2019-03-04T05:26:19.305Z,96146.19
2019-03-04T05:28:20.952Z,96146.83
2019-03-04T05:30:22.608Z,96134.64
2019-03-04T05:32:24.196Z,96131.48
2019-03-04T05:34:25.829Z,96130.24
2019-03-04T05:36:27.456Z,96115.52
2019-03-04T05:38:29.063Z,96107.28
2019-03-04T05:40:30.707Z,96103.39
2019-03-04T05:42:32.320Z,96093.36
2019-03-04T05:44:33.927Z,96093.81
2019-03-04T05:46:35.555Z,96077.14
2019-03-04T05:48:37.164Z,96082.59
2019-03-04T05:50:38.793Z,96073.97
2019-03-04T05:52:40.386Z,96088.05
2019-03-04T05:54:41.982Z,96076.02
2019-03-04T05:56:43.609Z,96077.26
2019-03-04T05:58:45.211Z,96050.68
2019-03-04T06:00:46.809Z,96073.74
2019-03-04T06:02:48.421Z,96088.17
2019-03-04T06:04:50.017Z,96085.66
2019-03-04T06:06:51.740Z,96080.52
2019-03-04T06:08:53.325Z,96081.54
2019-03-04T06:10:54.917Z,96075.25
2019-03-04T06:12:58.712Z,96073.84
2019-03-04T06:14:58.189Z,96063.38
2019-03-04T06:16:59.782Z,96028.06
2019-03-04T06:19:01.418Z,96071.94
2019-03-04T06:21:03.013Z,96062.30
2019-03-04T06:23:04.644Z,96070.75
2019-03-04T06:25:07.490Z,96070.41
2019-03-04T06:27:07.910Z,96055.31
2019-03-04T06:29:09.512Z,96062.45
2019-03-04T06:31:11.106Z,96053.61
2019-03-04T06:33:12.730Z,96055.85
2019-03-04T06:35:14.336Z,96049.95
2019-03-04T06:37:15.944Z,96051.67
2019-03-04T06:39:17.571Z,96041.14
2019-03-04T06:41:19.175Z,96046.34
2019-03-04T06:43:20.787Z,96042.89
2019-03-04T06:45:22.383Z,96044.97
2019-03-04T06:47:23.981Z,96045.52
2019-03-04T06:49:25.620Z,96042.58
2019-03-04T06:51:27.204Z,96039.70
2019-03-04T06:53:28.797Z,96037.19
2019-03-04T06:55:30.380Z,96023.17
2019-03-04T06:57:31.987Z,96022.83
2019-03-04T06:59:33.618Z,96024.03
2019-03-04T07:01:35.218Z,95998.59
2019-03-04T07:03:36.819Z,95999.01
2019-03-04T07:05:38.461Z,96006.70
2019-03-04T07:07:40.058Z,96001.56
2019-03-04T07:09:41.665Z,95997.77
2019-03-04T07:11:43.275Z,95995.50
2019-03-04T07:13:44.879Z,95984.35
2019-03-04T07:15:46.487Z,95978.31
2019-03-04T07:17:48.082Z,95985.05
2019-03-04T07:19:49.674Z,95976.87
2019-03-04T07:21:51.312Z,95979.88
2019-03-04T07:23:52.930Z,95984.98
2019-03-04T07:25:54.537Z,95984.56
2019-03-04T07:27:56.152Z,95986.27
2019-03-04T07:29:57.741Z,95993.64
2019-03-04T07:31:59.342Z,95985.94
2019-03-04T07:34:01.011Z,95988.50
2019-03-04T07:36:02.620Z,95999.26
2019-03-04T07:38:04.214Z,95988.98
2019-03-04T07:40:05.832Z,95992.53
2019-03-04T07:42:07.476Z,95988.48
2019-03-04T07:44:09.070Z,95980.05
2019-03-04T07:46:10.656Z,95984.70
2019-03-04T07:48:12.268Z,95980.94
2019-03-04T07:50:13.873Z,95981.86
2019-03-04T07:52:15.487Z,95977.62
2019-03-04T07:54:17.102Z,95987.28
2019-03-04T07:56:18.688Z,95978.45
2019-03-04T07:58:20.282Z,95978.37
2019-03-04T08:00:21.928Z,95971.12
2019-03-04T08:02:23.544Z,95963.30
2019-03-04T08:04:25.193Z,95953.05
2019-03-04T08:06:26.795Z,95935.90
2019-03-04T08:08:28.390Z,95921.82
2019-03-04T08:10:30.002Z,95932.73
2019-03-04T08:12:31.598Z,95916.82
2019-03-04T08:14:33.318Z,95912.99
2019-03-04T08:16:36.214Z,95909.23
2019-03-04T08:18:36.588Z,95917.23
2019-03-04T08:20:38.214Z,95904.81
2019-03-04T08:22:39.868Z,95896.02
2019-03-04T08:24:41.502Z,95887.45
2019-03-04T08:26:43.094Z,95881.10
2019-03-04T08:28:44.693Z,95871.84
2019-03-04T08:30:46.327Z,95863.77
2019-03-04T08:32:47.924Z,95868.92
2019-03-04T08:34:49.740Z,95876.13
2019-03-04T08:36:51.335Z,95867.92
2019-03-04T08:38:52.940Z,95867.67
2019-03-04T08:40:54.533Z,95866.88
2019-03-04T08:42:56.144Z,95857.56
2019-03-04T08:44:57.762Z,95839.09
2019-03-04T08:46:59.362Z,95835.99
2019-03-04T08:49:00.964Z,95829.27
2019-03-04T08:51:02.566Z,95822.50
2019-03-04T08:53:04.165Z,95829.23
2019-03-04T08:55:05.803Z,95825.50
2019-03-04T08:57:07.417Z,95829.37
2019-03-04T08:59:09.014Z,95824.98
2019-03-04T09:01:10.603Z,95817.16
2019-03-04T09:03:12.214Z,95814.15
2019-03-04T09:05:13.800Z,95805.73
2019-03-04T09:07:15.395Z,95817.60
2019-03-04T09:09:16.992Z,95805.01
2019-03-04T09:11:18.590Z,95792.10
2019-03-04T09:13:20.187Z,95801.91
2019-03-04T09:15:21.819Z,95808.70
2019-03-04T09:17:23.432Z,95798.34
2019-03-04T09:19:25.026Z,95798.00
2019-03-04T09:21:26.663Z,95792.83
2019-03-04T09:23:28.261Z,95793.63
2019-03-04T09:25:30.667Z,95790.58
2019-03-04T09:27:31.510Z,95782.51
2019-03-04T09:29:33.106Z,95786.61
2019-03-04T09:31:34.755Z,95793.00
2019-03-04T09:33:36.372Z,95792.89
2019-03-04T09:35:38.036Z,95795.72
2019-03-04T09:37:39.638Z,95791.81
2019-03-04T09:39:41.238Z,95793.58
2019-03-04T09:41:42.875Z,95791.72
2019-03-04T09:43:44.484Z,95750.53
2019-03-04T09:45:46.096Z,95781.05
2019-03-04T09:47:47.736Z,95792.44
2019-03-04T09:49:49.338Z,95782.64
2019-03-04T09:51:50.948Z,95788.98
2019-03-04T09:53:52.545Z,95778.32
2019-03-04T09:55:54.144Z,95780.08
2019-03-04T09:57:55.739Z,95780.32
2019-03-04T09:59:57.365Z,95777.56
2019-03-04T10:01:58.958Z,95770.80
2019-03-04T10:04:00.605Z,95774.22
2019-03-04T10:06:02.210Z,95762.31
2019-03-04T10:08:03.806Z,95770.80
2019-03-04T10:10:05.397Z,95755.55
2019-03-04T10:12:06.989Z,95757.69
2019-03-04T10:14:08.588Z,95754.38
2019-03-04T10:16:18.479Z,95748.89
2019-03-04T10:18:11.868Z,95751.55
2019-03-04T10:20:13.512Z,95756.59
2019-03-04T10:22:15.100Z,95755.41
2019-03-04T10:24:16.743Z,95755.97
2019-03-04T10:26:22.628Z,95732.65
2019-03-04T10:28:19.978Z,95726.68
2019-03-04T10:30:21.728Z,95753.48
2019-03-04T10:32:23.335Z,95748.80
2019-03-04T10:34:24.930Z,95737.75
2019-03-04T10:36:26.554Z,95726.23
2019-03-04T10:38:28.146Z,95726.19
2019-03-04T10:40:29.743Z,95723.77
2019-03-04T10:42:31.384Z,95717.17
2019-03-04T10:44:37.584Z,95718.20
2019-03-04T10:46:34.675Z,95710.66
2019-03-04T10:48:36.273Z,95714.42
2019-03-04T10:50:37.869Z,95693.39
2019-03-04T10:52:39.481Z,95690.31
2019-03-04T10:54:41.068Z,95731.70
2019-03-04T10:56:42.680Z,95721.44
2019-03-04T10:58:44.286Z,95709.99
2019-03-04T11:00:45.885Z,95722.53
2019-03-04T11:02:47.489Z,95700.97
2019-03-04T11:04:49.086Z,95701.11
2019-03-04T11:06:50.682Z,95718.46
2019-03-04T11:08:52.321Z,95718.88
2019-03-04T11:10:53.936Z,95699.87
2019-03-04T11:12:55.580Z,95713.08
2019-03-04T11:14:57.178Z,95700.31
2019-03-04T11:16:58.787Z,95670.20
2019-03-04T11:19:00.410Z,95712.88
2019-03-04T11:21:05.043Z,95718.41
2019-03-04T11:23:06.819Z,95718.58
2019-03-04T11:25:08.452Z,95684.33
2019-03-04T11:27:10.066Z,95704.02
2019-03-04T11:29:13.288Z,95695.12
2019-03-04T11:31:13.341Z,95666.77
2019-03-04T11:33:14.967Z,95675.97
2019-03-04T11:35:16.558Z,95676.76
2019-03-04T11:37:18.164Z,95689.52
2019-03-04T11:39:19.789Z,95669.52
2019-03-04T11:41:21.382Z,95661.44
2019-03-04T11:43:22.979Z,95629.03
2019-03-04T11:45:24.583Z,95591.91
2019-03-04T11:47:26.178Z,95608.13
2019-03-04T11:49:27.790Z,95608.95
2019-03-04T11:51:29.486Z,95576.59
2019-03-04T11:53:31.084Z,95569.19
2019-03-04T11:55:32.717Z,95566.53
2019-03-04T11:57:34.309Z,95531.30
2019-03-04T11:59:35.888Z,95499.80
2019-03-04T12:01:37.532Z,95500.36
2019-03-04T12:03:39.136Z,95495.75
2019-03-04T12:05:40.750Z,95508.25
2019-03-04T12:07:42.359Z,95495.38
2019-03-04T12:09:43.957Z,95492.30
2019-03-04T12:11:45.603Z,95513.32
2019-03-04T12:13:47.203Z,95518.17
2019-03-04T12:15:48.789Z,95509.12
2019-03-04T12:17:50.386Z,95523.45
2019-03-04T12:19:51.982Z,95511.59
2019-03-04T12:21:53.634Z,95517.70
2019-03-04T12:23:55.248Z,95529.12
2019-03-04T12:25:56.918Z,95527.47
2019-03-04T12:27:58.542Z,95530.92
2019-03-04T12:30:00.346Z,95528.52
2019-03-04T12:32:02.240Z,95517.28
2019-03-04T12:34:03.838Z,95503.59
2019-03-04T12:36:05.473Z,95501.78
2019-03-04T12:38:07.081Z,95510.03
2019-03-04T12:40:08.693Z,95503.84
2019-03-04T12:42:10.336Z,95517.27
2019-03-04T12:44:11.933Z,95499.70
2019-03-04T12:46:13.572Z,95497.39
2019-03-04T12:48:15.176Z,95514.02
2019-03-04T12:50:20.667Z,95508.95
2019-03-04T12:52:23.290Z,95514.02
2019-03-04T12:54:23.952Z,95518.98
2019-03-04T12:56:25.592Z,95516.70
2019-03-04T12:58:27.189Z,95520.72
2019-03-04T13:00:28.787Z,95518.32
2019-03-04T13:02:30.393Z,95520.23
2019-03-04T13:04:31.998Z,95510.64
2019-03-04T13:06:33.631Z,95540.37
2019-03-04T13:08:35.226Z,95539.73
2019-03-04T13:10:36.940Z,95537.18
2019-03-04T13:12:38.705Z,95549.42
2019-03-04T13:14:40.354Z,95559.03
2019-03-04T13:16:51.880Z,95542.38
2019-03-04T13:18:53.474Z,95564.55
2019-03-04T13:20:55.073Z,95564.13
2019-03-04T13:22:56.694Z,95558.92
2019-03-04T13:24:58.335Z,95563.58
2019-03-04T13:26:59.929Z,95565.72
2019-03-04T13:29:01.526Z,95550.33
2019-03-04T13:31:03.143Z,95562.56
2019-03-04T13:33:04.784Z,95567.53
2019-03-04T13:35:06.380Z,95557.42
2019-03-04T13:37:08.012Z,95556.56
2019-03-04T13:39:09.782Z,95546.23
2019-03-04T13:41:11.531Z,95531.45
2019-03-04T13:43:13.168Z,95533.55
2019-03-04T13:45:14.776Z,95525.63
2019-03-04T13:47:16.687Z,95525.44
2019-03-04T13:49:18.696Z,95513.76
2019-03-04T13:51:30.338Z,95504.53
2019-03-04T13:53:31.969Z,95493.11
2019-03-04T13:55:33.562Z,95495.14
2019-03-04T13:57:36.591Z,95509.45
2019-03-04T13:59:48.111Z,95523.48
2019-03-04T14:01:49.754Z,95513.68
2019-03-04T14:03:51.347Z,95524.64
2019-03-04T14:05:52.961Z,95525.02
2019-03-04T14:07:54.547Z,95527.20
2019-03-04T14:09:56.148Z,95532.98
2019-03-04T14:11:57.853Z,95540.26
2019-03-04T14:13:59.489Z,95543.34
2019-03-04T14:16:01.095Z,95516.84
2019-03-04T14:18:02.724Z,95553.50
2019-03-04T14:20:04.349Z,95571.85
2019-03-04T14:22:06.086Z,95567.16
2019-03-04T14:24:07.919Z,95567.58
2019-03-04T14:26:19.479Z,95561.50
2019-03-04T14:28:21.507Z,95576.78
2019-03-04T14:30:23.089Z,95552.27
2019-03-04T14:32:24.682Z,95566.19
2019-03-04T14:34:26.311Z,95552.67
2019-03-04T14:36:27.910Z,95573.50
2019-03-04T14:38:29.506Z,95565.44
2019-03-04T14:40:31.595Z,95579.74
2019-03-04T14:42:33.247Z,95581.88
2019-03-04T14:44:35.610Z,95579.29
2019-03-04T14:46:37.210Z,95586.43
2019-03-04T14:48:38.835Z,95570.28
2019-03-04T14:50:40.429Z,95576.73
2019-03-04T14:52:42.045Z,95560.08
2019-03-04T14:54:43.656Z,95567.84
2019-03-04T14:56:47.403Z,95571.30
2019-03-04T14:58:46.962Z,95567.00
2019-03-04T15:00:48.547Z,95560.73
2019-03-04T15:02:50.255Z,95564.63
2019-03-04T15:04:51.795Z,95563.25
2019-03-04T15:06:53.438Z,95559.84
2019-03-04T15:08:55.036Z,95561.38
2019-03-04T15:10:56.629Z,95566.52
2019-03-04T15:12:58.285Z,95566.38
2019-03-04T15:14:59.897Z,95562.89
2019-03-04T15:17:03.553Z,95570.02
2019-03-04T15:19:03.266Z,95567.88
2019-03-04T15:21:04.961Z,95575.98
2019-03-04T15:23:06.634Z,95569.12
2019-03-04T15:25:18.150Z,95565.25
2019-03-04T15:27:19.789Z,95544.81
2019-03-04T15:29:21.434Z,95553.84
2019-03-04T15:31:23.032Z,95564.47
2019-03-04T15:33:24.616Z,95571.37
2019-03-04T15:35:26.218Z,95569.07
2019-03-04T15:37:27.821Z,95579.12
2019-03-04T15:39:29.450Z,95567.81
2019-03-04T15:41:31.062Z,95573.37
2019-03-04T15:43:32.663Z,95561.12
2019-03-04T15:45:34.352Z,95566.09
2019-03-04T15:47:36.748Z,95563.39
2019-03-04T15:49:38.140Z,95579.38
2019-03-04T15:51:39.739Z,95577.21
2019-03-04T15:53:43.441Z,95580.52
2019-03-04T15:55:43.022Z,95558.88
2019-03-04T15:57:44.666Z,95570.17
2019-03-04T15:59:46.276Z,95570.09
2019-03-04T16:01:47.877Z,95560.64
2019-03-04T16:03:49.502Z,95554.70
2019-03-04T16:05:51.141Z,95554.30
2019-03-04T16:07:52.749Z,95550.80
2019-03-04T16:09:54.363Z,95559.73
2019-03-04T16:11:56.209Z,95558.46
2019-03-04T16:13:57.823Z,95554.11
2019-03-04T16:15:59.460Z,95551.14
2019-03-04T16:18:01.058Z,95547.72
2019-03-04T16:20:02.662Z,95543.04
2019-03-04T16:22:04.474Z,95539.66
2019-03-04T16:24:06.110Z,95527.50
2019-03-04T16:26:07.712Z,95513.75
2019-03-04T16:28:09.339Z,95500.23
2019-03-04T16:30:10.954Z,95509.77
2019-03-04T16:32:13.765Z,95499.86
2019-03-04T16:34:15.362Z,95506.69
2019-03-04T16:36:16.957Z,95497.20
2019-03-04T16:38:18.590Z,95504.73
2019-03-04T16:40:20.190Z,95531.02
2019-03-04T16:42:21.907Z,95528.61
2019-03-04T16:44:23.556Z,95506.42
2019-03-04T16:46:25.141Z,95549.16
2019-03-04T16:48:26.739Z,95575.80
2019-03-04T16:50:28.345Z,95569.59
2019-03-04T16:52:29.946Z,95577.98
2019-03-04T16:54:31.538Z,95582.44
2019-03-04T16:56:33.266Z,95588.50
2019-03-04T16:58:34.960Z,95587.30
2019-03-04T17:00:36.559Z,95596.75
2019-03-04T17:02:38.168Z,95596.75
2019-03-04T17:04:39.779Z,95603.84
2019-03-04T17:06:41.417Z,95598.46
2019-03-04T17:08:43.026Z,95592.28
2019-03-04T17:10:44.657Z,95586.97
2019-03-04T17:12:46.308Z,95594.52
2019-03-04T17:14:47.926Z,95592.69
2019-03-04T17:16:49.529Z,95594.61
2019-03-04T17:18:51.178Z,95609.54
2019-03-04T17:20:52.786Z,95624.67
2019-03-04T17:22:54.404Z,95616.88
2019-03-04T17:24:56.011Z,95627.84
2019-03-04T17:26:57.620Z,95632.94
2019-03-04T17:28:59.292Z,95642.18
2019-03-04T17:31:00.893Z,95644.62
2019-03-04T17:33:02.507Z,95666.25
2019-03-04T17:35:05.262Z,95678.00
2019-03-04T17:37:06.924Z,95671.59
2019-03-04T17:39:08.552Z,95667.27
2019-03-04T17:41:10.492Z,95657.37
2019-03-04T17:43:12.117Z,95658.30
2019-03-04T17:45:13.712Z,95626.81
2019-03-04T17:47:15.305Z,95629.41
2019-03-04T17:49:16.910Z,95627.10
2019-03-04T17:51:18.521Z,95639.94
2019-03-04T17:53:20.137Z,95639.25
2019-03-04T17:55:21.725Z,95647.28
2019-03-04T17:57:23.332Z,95643.42
2019-03-04T17:59:24.946Z,95650.48
2019-03-04T18:01:26.565Z,95651.28
2019-03-04T18:03:28.904Z,95646.06
2019-03-04T18:05:30.517Z,95648.66
2019-03-04T18:07:32.114Z,95651.10
2019-03-04T18:09:33.843Z,95652.80
2019-03-04T18:11:35.451Z,95646.00
2019-03-04T18:13:37.092Z,95645.28
2019-03-04T18:15:38.697Z,95649.36
2019-03-04T18:17:40.313Z,95655.58
2019-03-04T18:19:41.910Z,95647.56
2019-03-04T18:21:43.496Z,95651.52
2019-03-04T18:23:45.142Z,95653.20
2019-03-04T18:25:46.786Z,95647.27
2019-03-04T18:27:48.770Z,95636.05
2019-03-04T18:29:50.380Z,95642.99
2019-03-04T18:31:51.984Z,95643.48
2019-03-04T18:33:53.581Z,95650.87
2019-03-04T18:35:55.186Z,95653.38
2019-03-04T18:37:56.781Z,95659.35
2019-03-04T18:39:58.388Z,95649.03
2019-03-04T18:41:59.988Z,95649.83
2019-03-04T18:44:01.592Z,95651.97
2019-03-04T18:46:03.459Z,95648.81
2019-03-04T18:48:05.184Z,95668.80
2019-03-04T18:50:06.813Z,95669.06
2019-03-04T18:52:08.424Z,95668.72
2019-03-04T18:54:10.022Z,95678.14
2019-03-04T18:56:19.167Z,95675.52
2019-03-04T18:58:13.337Z,95707.44
2019-03-04T19:00:14.973Z,95781.41
2019-03-04T19:02:16.578Z,95800.14
2019-03-04T19:04:18.175Z,95805.73
2019-03-04T19:06:19.787Z,95806.39
2019-03-04T19:08:21.372Z,95817.77
2019-03-04T19:10:23.025Z,95830.27
2019-03-04T19:12:24.630Z,95840.86
2019-03-04T19:14:26.226Z,95847.55
2019-03-04T19:16:27.836Z,95838.23
2019-03-04T19:18:29.430Z,95845.69
2019-03-04T19:20:31.068Z,95825.50
2019-03-04T19:22:32.661Z,95834.72
2019-03-04T19:24:34.390Z,95846.20
2019-03-04T19:26:36.125Z,95847.80
2019-03-04T19:28:37.784Z,95842.27
2019-03-04T19:30:39.368Z,95862.67
2019-03-04T19:32:40.961Z,95862.98
2019-03-04T19:34:42.616Z,95868.95
2019-03-04T19:36:44.267Z,95871.92
2019-03-04T19:38:45.936Z,95874.44
2019-03-04T19:40:47.624Z,95868.92
2019-03-04T19:42:49.221Z,95869.33
2019-03-04T19:44:50.824Z,95871.57
2019-03-04T19:46:52.418Z,95880.96
2019-03-04T19:48:54.021Z,95879.64
2019-03-04T19:50:55.619Z,95892.48
2019-03-04T19:52:57.237Z,95895.59
2019-03-04T19:54:58.832Z,95892.11
2019-03-04T19:57:00.444Z,95891.66
2019-03-04T19:59:02.032Z,95887.83
2019-03-04T20:01:03.629Z,95887.48
2019-03-04T20:03:05.216Z,95892.17
2019-03-04T20:05:07.503Z,95894.00
2019-03-04T20:07:09.118Z,95891.38
2019-03-04T20:09:10.723Z,95891.96
2019-03-04T20:11:12.318Z,95890.75
2019-03-04T20:13:13.911Z,95895.45
2019-03-04T20:15:15.828Z,95895.86
2019-03-04T20:17:17.608Z,95892.61
2019-03-04T20:19:19.220Z,95892.13
2019-03-04T20:21:20.804Z,95904.45
2019-03-04T20:23:22.408Z,95904.38
2019-03-04T20:25:24.048Z,95899.31
2019-03-04T20:27:25.641Z,95899.69
2019-03-04T20:29:27.248Z,95906.52
2019-03-04T20:31:28.860Z,95893.41
2019-03-04T20:33:30.468Z,95901.89
2019-03-04T20:35:32.088Z,95897.66
2019-03-04T20:37:33.682Z,95895.06
2019-03-04T20:39:35.316Z,95906.42
2019-03-04T20:41:37.002Z,95921.61
2019-03-04T20:43:38.644Z,95922.37
2019-03-04T20:45:40.237Z,95921.89
2019-03-04T20:47:41.844Z,95928.20
2019-03-04T20:49:43.452Z,95932.80
2019-03-04T20:51:45.092Z,95942.25
2019-03-04T20:53:46.695Z,95943.42
2019-03-04T20:55:48.282Z,95953.61
2019-03-04T20:57:50.355Z,95955.33
2019-03-04T20:59:51.952Z,95956.54
2019-03-04T21:01:53.564Z,95959.09
2019-03-04T21:03:55.161Z,95963.79
2019-03-04T21:05:56.747Z,95961.69
2019-03-04T21:07:58.401Z,95960.98
2019-03-04T21:10:00.014Z,95972.96
2019-03-04T21:12:01.611Z,95980.27
2019-03-04T21:14:03.216Z,95988.27
2019-03-04T21:16:04.823Z,95981.31
2019-03-04T21:18:06.527Z,95986.62
2019-03-04T21:20:08.712Z,95993.02
2019-03-04T21:22:10.311Z,96003.45
2019-03-04T21:24:11.909Z,95995.70
2019-03-04T21:26:13.503Z,96002.81
2019-03-04T21:28:15.411Z,96010.34
2019-03-04T21:30:17.016Z,95995.70
2019-03-04T21:32:18.622Z,96013.14
2019-03-04T21:34:20.214Z,96006.00
2019-03-04T21:36:21.814Z,96017.42
2019-03-04T21:38:23.405Z,96018.66
2019-03-04T21:40:25.019Z,96015.37
2019-03-04T21:42:26.648Z,96032.25
2019-03-04T21:44:28.264Z,96022.33
2019-03-04T21:46:31.178Z,96042.20
2019-03-04T21:48:31.600Z,96037.45
2019-03-04T21:50:33.211Z,96038.25
2019-03-04T21:52:34.806Z,96055.13
2019-03-04T21:54:36.418Z,96057.81
2019-03-04T21:56:38.058Z,96052.96
2019-03-04T21:58:39.809Z,96067.73
2019-03-04T22:00:41.445Z,96073.28
2019-03-04T22:02:43.040Z,96061.73
2019-03-04T22:04:44.647Z,96072.84
2019-03-04T22:06:46.261Z,96072.55
2019-03-04T22:08:47.867Z,96079.95
2019-03-04T22:10:49.474Z,96076.69
2019-03-04T22:12:51.102Z,96083.61
2019-03-04T22:14:52.701Z,96082.42
2019-03-04T22:16:54.287Z,96085.81
2019-03-04T22:18:55.913Z,96085.72
2019-03-04T22:20:57.510Z,96088.23
2019-03-04T22:22:59.144Z,96099.21
2019-03-04T22:25:00.765Z,96094.40
2019-03-04T22:27:02.361Z,96095.64
2019-03-04T22:29:03.990Z,96090.00
2019-03-04T22:31:05.595Z,96108.73
2019-03-04T22:33:07.202Z,96107.92
2019-03-04T22:35:08.810Z,96101.16
2019-03-04T22:37:10.425Z,96112.84
2019-03-04T22:39:12.147Z,96110.52
2019-03-04T22:41:13.948Z,96120.48
2019-03-04T22:43:15.347Z,96119.43
2019-03-04T22:45:16.959Z,96126.95
2019-03-04T22:47:18.564Z,96134.95
2019-03-04T22:49:20.190Z,96137.48
2019-03-04T22:51:21.815Z,96139.05
2019-03-04T22:53:23.415Z,96141.69
2019-03-04T22:55:25.024Z,96154.64
2019-03-04T22:57:26.628Z,96160.14
2019-03-04T22:59:28.279Z,96159.19
2019-03-04T23:01:29.912Z,96157.84
2019-03-04T23:03:31.524Z,96157.78
2019-03-04T23:05:33.122Z,96167.08
2019-03-04T23:07:34.713Z,96170.22
2019-03-04T23:09:36.346Z,96163.66
2019-03-04T23:11:37.947Z,96175.95
2019-03-04T23:13:39.532Z,96179.33
2019-03-04T23:15:41.176Z,96138.07
2019-03-04T23:17:42.774Z,96175.44
2019-03-04T23:19:44.383Z,96177.13
2019-03-04T23:21:45.988Z,96178.91
2019-03-04T23:23:47.600Z,96174.61
2019-03-04T23:25:49.195Z,96189.80
2019-03-04T23:27:50.780Z,96177.16
2019-03-04T23:29:52.391Z,96178.77
2019-03-04T23:31:54.046Z,96189.80
2019-03-04T23:33:55.685Z,96188.94
2019-03-04T23:35:57.268Z,96190.63
2019-03-04T23:37:58.867Z,96195.32
2019-03-04T23:40:00.515Z,96205.53
2019-03-04T23:42:02.113Z,96205.09
2019-03-04T23:44:03.694Z,96197.40
2019-03-04T23:46:05.308Z,96207.55
2019-03-04T23:48:06.897Z,96205.91
2019-03-04T23:50:08.494Z,96200.81